createdAt,value
2022-11-23T00:00:41.501Z,24.60
2022-11-23T00:03:12.982Z,24.90
2022-11-23T00:05:39.861Z,24.80
2022-11-23T00:08:06.750Z,24.60
2022-11-23T00:10:33.657Z,24.60
2022-11-23T00:13:00.521Z,25.10
2022-11-23T00:15:27.373Z,25.30
2022-11-23T00:17:54.271Z,24.90
2022-11-23T00:20:21.146Z,24.30
2022-11-23T00:22:48.058Z,24.40
2022-11-23T00:25:15.051Z,24.10
2022-11-23T00:27:41.892Z,24.20
2022-11-23T00:30:09.425Z,24.10
2022-11-23T00:32:36.329Z,24.10
2022-11-23T00:35:03.294Z,24.50
2022-11-23T00:37:30.271Z,24.20
2022-11-23T00:39:57.124Z,24.20
2022-11-23T00:42:24.005Z,24.00
2022-11-23T00:44:50.903Z,24.10
2022-11-23T00:47:17.762Z,23.80
2022-11-23T00:49:44.599Z,24.00
2022-11-23T00:52:11.480Z,23.90
2022-11-23T00:54:38.389Z,24.50
2022-11-23T00:57:05.311Z,23.60
2022-11-23T00:59:32.313Z,23.70
2022-11-23T01:01:59.334Z,23.90
2022-11-23T01:04:27.341Z,24.40
2022-11-23T01:06:59.315Z,24.10
2022-11-23T01:09:26.996Z,24.40
2022-11-23T01:11:54.668Z,24.00
2022-11-23T01:14:22.290Z,24.10
2022-11-23T01:16:49.700Z,24.20
2022-11-23T01:19:21.335Z,24.30
2022-11-23T01:21:48.481Z,24.20
2022-11-23T01:24:18.456Z,24.30
2022-11-23T01:26:46.063Z,24.80
2022-11-23T01:29:13.422Z,24.90
2022-11-23T01:31:46.137Z,25.20
2022-11-23T01:34:14.868Z,25.90
2022-11-23T01:36:42.815Z,25.70
2022-11-23T01:39:11.615Z,25.50
2022-11-23T01:41:40.587Z,24.80
2022-11-23T01:44:41.792Z,24.80
2022-11-23T01:47:09.892Z,25.40
2022-11-23T01:49:39.223Z,25.70
2022-11-23T01:52:28.451Z,25.60
2022-11-23T01:54:58.096Z,25.30
2022-11-23T01:57:34.110Z,25.60
2022-11-23T02:00:01.257Z,25.40
2022-11-23T02:02:31.213Z,24.80
2022-11-23T02:05:00.885Z,25.30
2022-11-23T02:07:29.406Z,24.60
2022-11-23T02:09:56.645Z,24.80
2022-11-23T02:12:23.542Z,24.80
2022-11-23T02:14:50.541Z,25.20
2022-11-23T02:17:17.641Z,25.20
2022-11-23T02:20:10.484Z,25.00
2022-11-23T02:22:59.024Z,24.50
2022-11-23T02:25:45.670Z,24.40
2022-11-23T02:28:29.116Z,24.20
2022-11-23T02:30:56.190Z,24.80
2022-11-23T02:33:23.128Z,24.40
2022-11-23T02:35:52.234Z,24.50
2022-11-23T02:38:19.855Z,24.20
2022-11-23T02:40:46.766Z,24.00
2022-11-23T02:43:14.336Z,24.10
2022-11-23T02:45:46.552Z,23.70
2022-11-23T02:50:58.073Z,24.10
2022-11-23T02:53:24.948Z,24.10
2022-11-23T02:55:51.812Z,24.20
2022-11-23T02:58:18.697Z,24.30
2022-11-23T03:00:45.706Z,24.10
2022-11-23T03:03:12.702Z,24.20
2022-11-23T03:05:39.603Z,23.50
2022-11-23T03:08:06.909Z,23.50
2022-11-23T03:10:34.116Z,23.70
2022-11-23T03:13:01.119Z,23.50
2022-11-23T03:15:28.715Z,24.10
2022-11-23T03:17:58.008Z,23.70
2022-11-23T03:20:25.460Z,24.50
2022-11-23T03:22:52.398Z,24.30
2022-11-23T03:25:19.274Z,24.40
2022-11-23T03:27:46.218Z,24.20
2022-11-23T03:30:13.385Z,23.90
2022-11-23T03:32:40.244Z,23.80
2022-11-23T03:35:07.997Z,23.30
2022-11-23T03:37:35.134Z,23.40
2022-11-23T03:40:02.076Z,23.50
2022-11-23T03:42:28.986Z,24.00
2022-11-23T03:44:55.929Z,23.80
2022-11-23T03:47:22.808Z,23.90
2022-11-23T03:49:49.710Z,23.70
2022-11-23T03:52:16.622Z,23.70
2022-11-23T03:54:43.537Z,23.80
2022-11-23T03:57:10.430Z,23.90
2022-11-23T03:59:37.416Z,23.80
2022-11-23T04:02:04.295Z,24.20
2022-11-23T04:04:31.151Z,24.00
2022-11-23T04:06:58.050Z,23.80
2022-11-23T04:09:25.410Z,23.60
2022-11-23T04:11:52.442Z,23.40
2022-11-23T04:14:19.452Z,23.10
2022-11-23T04:16:46.338Z,23.30
2022-11-23T04:19:13.245Z,23.60
2022-11-23T04:21:40.174Z,23.80
2022-11-23T04:24:07.297Z,23.90
2022-11-23T04:26:34.596Z,23.80
2022-11-23T04:29:01.461Z,23.70
2022-11-23T04:31:28.563Z,24.00
2022-11-23T04:33:57.420Z,24.00
2022-11-23T04:36:24.894Z,24.30
2022-11-23T04:38:51.786Z,24.10
2022-11-23T04:41:18.682Z,24.60
2022-11-23T04:43:47.625Z,24.80
2022-11-23T04:46:14.504Z,24.70
2022-11-23T04:48:41.567Z,25.10
2022-11-23T04:51:08.640Z,25.00
2022-11-23T04:53:35.533Z,24.50
2022-11-23T04:56:02.721Z,24.50
2022-11-23T04:58:34.221Z,24.20
2022-11-23T05:01:01.652Z,24.10
2022-11-23T05:03:28.740Z,24.20
2022-11-23T05:05:58.660Z,24.20
2022-11-23T05:08:25.530Z,24.20
2022-11-23T05:10:52.366Z,23.90
2022-11-23T05:13:19.479Z,24.10
2022-11-23T05:15:46.475Z,23.90
2022-11-23T05:18:13.369Z,23.90
2022-11-23T05:20:40.420Z,24.30
2022-11-23T05:23:08.196Z,24.10
2022-11-23T05:25:35.091Z,24.40
2022-11-23T05:28:16.569Z,24.50
2022-11-23T05:30:49.066Z,24.40
2022-11-23T05:33:15.911Z,24.40
2022-11-23T05:35:43.215Z,24.90
2022-11-23T05:38:10.299Z,24.20
2022-11-23T05:40:37.300Z,24.30
2022-11-23T05:43:04.792Z,24.10
2022-11-23T05:45:34.166Z,24.00
2022-11-23T05:48:01.032Z,24.20
2022-11-23T05:50:29.622Z,24.50
2022-11-23T05:52:58.198Z,24.40
2022-11-23T05:55:26.119Z,23.90
2022-11-23T05:57:53.473Z,23.90
2022-11-23T06:00:20.723Z,24.00
2022-11-23T06:02:47.827Z,24.50
2022-11-23T06:05:14.864Z,24.50
2022-11-23T06:07:41.896Z,24.10
2022-11-23T06:10:09.104Z,23.90
2022-11-23T06:12:36.011Z,23.90
2022-11-23T06:15:03.046Z,24.40
2022-11-23T06:17:29.922Z,24.60
2022-11-23T06:19:56.861Z,24.20
2022-11-23T06:24:32.085Z,23.60
2022-11-23T06:26:58.954Z,24.20
2022-11-23T06:29:25.990Z,24.20
2022-11-23T06:31:52.897Z,23.90
2022-11-23T06:34:20.018Z,23.70
2022-11-23T06:36:47.201Z,24.30
2022-11-23T06:39:14.382Z,24.30
2022-11-23T06:41:41.302Z,24.40
2022-11-23T06:44:08.342Z,24.40
2022-11-23T06:46:35.288Z,24.10
2022-11-23T06:49:04.497Z,23.80
2022-11-23T06:51:31.448Z,24.00
2022-11-23T06:53:58.337Z,23.80
2022-11-23T06:56:25.233Z,23.20
2022-11-23T06:58:52.128Z,23.10
2022-11-23T07:01:19.216Z,23.30
2022-11-23T07:03:46.149Z,23.60
2022-11-23T07:06:13.092Z,23.10
2022-11-23T07:08:43.425Z,23.20
2022-11-23T07:11:11.939Z,23.10
2022-11-23T07:13:39.565Z,23.00
2022-11-23T07:16:07.600Z,23.10
2022-11-23T07:18:36.702Z,23.40
2022-11-23T07:21:03.622Z,23.50
2022-11-23T07:23:30.523Z,23.40
2022-11-23T07:25:57.427Z,23.80
2022-11-23T07:28:24.351Z,23.60
2022-11-23T07:30:52.397Z,23.60
2022-11-23T07:33:19.302Z,23.60
2022-11-23T07:35:46.186Z,23.50
2022-11-23T07:38:13.074Z,23.20
2022-11-23T07:40:40.185Z,23.10
2022-11-23T07:43:07.784Z,23.00
2022-11-23T07:45:36.779Z,22.60
2022-11-23T07:48:08.408Z,22.90
2022-11-23T07:50:37.014Z,22.70
2022-11-23T07:53:05.242Z,23.10
2022-11-23T07:55:32.740Z,23.20
2022-11-23T07:58:00.128Z,23.10
2022-11-23T08:00:28.464Z,22.60
2022-11-23T08:03:27.327Z,22.90
2022-11-23T08:05:43.837Z,22.80
2022-11-23T08:08:11.883Z,22.60
2022-11-23T08:10:43.621Z,22.70
2022-11-23T08:13:12.174Z,22.90
2022-11-23T08:15:39.021Z,23.20
2022-11-23T08:18:06.007Z,22.90
2022-11-23T08:20:33.678Z,23.20
2022-11-23T08:23:00.781Z,23.60
2022-11-23T08:25:29.688Z,23.20
2022-11-23T08:28:01.836Z,22.90
2022-11-23T08:30:30.152Z,22.80
2022-11-23T08:32:57.139Z,23.00
2022-11-23T08:35:25.083Z,23.10
2022-11-23T08:37:52.015Z,23.00
2022-11-23T08:40:24.760Z,22.70
2022-11-23T08:42:52.161Z,22.90
2022-11-23T08:45:19.188Z,23.10
2022-11-23T08:47:46.125Z,23.30
2022-11-23T08:50:13.423Z,23.60
2022-11-23T08:52:40.575Z,24.50
2022-11-23T08:55:07.832Z,24.20
2022-11-23T08:57:34.887Z,24.10
2022-11-23T09:00:02.009Z,24.20
2022-11-23T09:02:28.902Z,23.90
2022-11-23T09:04:55.866Z,23.10
2022-11-23T09:07:22.972Z,22.60
2022-11-23T09:09:52.657Z,22.90
2022-11-23T09:12:19.557Z,23.30
2022-11-23T09:14:46.519Z,23.20
2022-11-23T09:17:13.397Z,23.10
2022-11-23T09:19:41.170Z,23.30
2022-11-23T09:22:08.147Z,23.60
2022-11-23T09:24:35.382Z,23.20
2022-11-23T09:27:02.595Z,23.10
2022-11-23T09:29:29.654Z,23.00
2022-11-23T09:31:56.540Z,23.40
2022-11-23T09:34:23.488Z,23.10
2022-11-23T09:36:50.461Z,23.00
2022-11-23T09:39:17.344Z,22.80
2022-11-23T09:42:02.913Z,23.10
2022-11-23T09:44:52.456Z,23.10
2022-11-23T09:47:31.360Z,22.40
2022-11-23T09:50:12.891Z,22.10
2022-11-23T09:52:45.588Z,22.10
2022-11-23T09:55:35.463Z,22.40
2022-11-23T09:58:05.670Z,22.40
2022-11-23T10:00:47.721Z,22.20
2022-11-23T10:06:37.543Z,22.30
2022-11-23T10:09:10.438Z,22.00
2022-11-23T10:11:55.135Z,21.70
2022-11-23T10:15:03.403Z,21.50
2022-11-23T10:17:51.113Z,21.50
2022-11-23T10:20:34.319Z,21.20
2022-11-23T10:23:03.167Z,20.60
2022-11-23T10:25:43.078Z,20.30
2022-11-23T10:28:16.042Z,19.80
2022-11-23T10:30:43.455Z,19.90
2022-11-23T10:33:28.924Z,19.40
2022-11-23T10:35:55.830Z,19.50
2022-11-23T10:38:27.301Z,19.60
2022-11-23T10:41:00.406Z,19.30
2022-11-23T10:43:32.388Z,19.30
2022-11-23T10:46:31.130Z,19.00
2022-11-23T10:49:18.529Z,19.20
2022-11-23T10:51:58.829Z,19.30
2022-11-23T10:54:44.519Z,19.40
2022-11-23T10:57:33.779Z,19.70
2022-11-23T11:00:09.813Z,19.40
2022-11-23T11:02:41.951Z,19.50
2022-11-23T11:05:46.275Z,19.70
2022-11-23T11:08:17.313Z,19.60
2022-11-23T11:11:05.963Z,19.60
2022-11-23T11:13:47.404Z,19.40
2022-11-23T11:16:33.314Z,19.10
2022-11-23T11:19:20.572Z,19.40
2022-11-23T11:21:48.124Z,19.50
2022-11-23T11:24:22.299Z,19.40
2022-11-23T11:26:51.554Z,19.40
2022-11-23T11:29:38.711Z,19.50
2022-11-23T11:32:06.215Z,19.60
2022-11-23T11:34:58.691Z,19.60
2022-11-23T11:37:34.599Z,19.60
2022-11-23T11:40:19.530Z,19.90
2022-11-23T11:43:36.294Z,19.80
2022-11-23T11:46:35.429Z,19.90
2022-11-23T11:49:22.982Z,20.00
2022-11-23T11:52:23.873Z,19.60
2022-11-23T11:55:09.774Z,19.60
2022-11-23T11:57:42.162Z,19.30
2022-11-23T12:00:17.468Z,19.80
2022-11-23T12:03:02.305Z,19.70
2022-11-23T12:05:48.597Z,19.90
2022-11-23T12:08:30.524Z,20.30
2022-11-23T12:11:02.147Z,20.20
2022-11-23T12:13:37.310Z,20.20
2022-11-23T12:16:14.680Z,20.00
2022-11-23T12:18:50.525Z,20.20
2022-11-23T12:21:52.777Z,20.00
2022-11-23T12:24:40.544Z,20.70
2022-11-23T12:27:19.609Z,21.10
2022-11-23T12:30:08.048Z,21.20
2022-11-23T12:32:42.114Z,21.50
2022-11-23T12:35:47.871Z,21.70
2022-11-23T12:38:44.030Z,21.70
2022-11-23T12:41:24.891Z,21.40
2022-11-23T12:44:10.700Z,21.60
2022-11-23T12:47:01.804Z,21.50
2022-11-23T12:49:41.819Z,21.60
2022-11-23T12:52:48.910Z,21.30
2022-11-23T12:55:29.523Z,21.70
2022-11-23T12:58:26.180Z,21.80
2022-11-23T13:01:10.678Z,22.10
2022-11-23T13:04:03.189Z,22.00
2022-11-23T13:09:52.981Z,22.40
2022-11-23T13:12:27.284Z,22.40
2022-11-23T13:15:02.143Z,22.30
2022-11-23T13:17:49.030Z,22.50
2022-11-23T13:20:24.383Z,22.30
2022-11-23T13:22:58.769Z,22.20
2022-11-23T13:25:29.954Z,22.10
2022-11-23T13:27:57.080Z,22.10
2022-11-23T13:33:38.187Z,22.00
2022-11-23T13:36:11.434Z,21.90
2022-11-23T13:38:43.003Z,22.10
2022-11-23T13:41:34.699Z,22.30
2022-11-23T13:44:22.815Z,22.10
2022-11-23T13:47:15.007Z,22.40
2022-11-23T13:49:52.750Z,21.70
2022-11-23T13:52:22.690Z,21.80
2022-11-23T13:55:11.336Z,22.30
2022-11-23T13:57:39.324Z,22.30
2022-11-23T14:00:54.531Z,22.50
2022-11-23T14:03:56.083Z,22.20
2022-11-23T14:06:41.379Z,22.80
2022-11-23T14:09:32.780Z,23.00
2022-11-23T14:12:22.008Z,23.00
2022-11-23T14:15:11.207Z,23.10
2022-11-23T14:17:50.362Z,23.20
2022-11-23T14:20:40.229Z,23.50
2022-11-23T14:23:34.276Z,22.70
2022-11-23T14:26:13.193Z,23.00
2022-11-23T14:29:03.869Z,23.00
2022-11-23T14:32:07.639Z,22.70
2022-11-23T14:35:10.741Z,23.30
2022-11-23T14:38:20.850Z,22.90
2022-11-23T14:41:01.401Z,23.20
2022-11-23T14:43:29.078Z,23.50
2022-11-23T14:46:03.291Z,23.60
2022-11-23T14:48:33.120Z,23.10
2022-11-23T14:51:06.113Z,23.40
2022-11-23T14:53:46.435Z,23.60
2022-11-23T14:56:40.464Z,24.00
2022-11-23T14:59:17.549Z,23.50
2022-11-23T15:01:54.118Z,23.50
2022-11-23T15:04:38.300Z,23.40
2022-11-23T15:07:47.302Z,23.30
2022-11-23T15:10:42.571Z,23.30
2022-11-23T15:13:22.926Z,22.90
2022-11-23T15:15:52.542Z,22.50
2022-11-23T15:18:31.228Z,22.60
2022-11-23T15:21:01.909Z,23.30
2022-11-23T15:23:44.883Z,23.50
2022-11-23T15:26:46.347Z,23.20
2022-11-23T15:29:36.019Z,23.60
2022-11-23T15:32:30.704Z,23.60
2022-11-23T15:35:07.194Z,23.40
2022-11-23T15:37:44.129Z,23.60
2022-11-23T15:40:19.544Z,23.80
2022-11-23T15:42:50.134Z,24.10
2022-11-23T15:45:57.158Z,24.20
2022-11-23T15:48:29.891Z,24.00
2022-11-23T15:51:00.002Z,23.60
2022-11-23T15:53:54.245Z,23.60
2022-11-23T15:56:34.522Z,24.00
2022-11-23T15:59:04.754Z,24.10
2022-11-23T16:01:31.731Z,24.10
2022-11-23T16:04:03.643Z,24.40
2022-11-23T16:06:36.894Z,24.00
2022-11-23T16:09:54.683Z,24.60
2022-11-23T16:12:29.507Z,24.80
2022-11-23T16:14:59.005Z,24.70
2022-11-23T16:17:30.025Z,24.80
2022-11-23T16:19:59.042Z,24.70
2022-11-23T16:22:31.017Z,24.60
2022-11-23T16:25:07.350Z,24.60
2022-11-23T16:27:35.696Z,24.00
2022-11-23T16:30:04.798Z,24.40
2022-11-23T16:32:32.327Z,24.50
2022-11-23T16:35:20.681Z,23.90
2022-11-23T16:37:47.667Z,24.00
2022-11-23T16:40:14.983Z,23.70
2022-11-23T16:42:42.035Z,23.30
2022-11-23T16:45:09.989Z,22.90
2022-11-23T16:47:52.272Z,23.20
2022-11-23T16:50:19.190Z,23.60
2022-11-23T16:52:46.072Z,23.60
2022-11-23T16:55:13.033Z,23.60
2022-11-23T16:57:44.130Z,23.90
2022-11-23T17:00:14.967Z,23.80
2022-11-23T17:02:42.060Z,24.50
2022-11-23T17:05:16.362Z,24.40
2022-11-23T17:07:43.463Z,24.80
2022-11-23T17:10:11.728Z,24.70
2022-11-23T17:12:40.652Z,24.70
2022-11-23T17:15:08.515Z,24.90
2022-11-23T17:17:35.381Z,24.40
2022-11-23T17:20:04.536Z,24.80
2022-11-23T17:22:31.825Z,25.10
2022-11-23T17:24:58.909Z,24.80
2022-11-23T17:27:25.994Z,24.80
2022-11-23T17:30:00.713Z,25.40
2022-11-23T17:32:28.358Z,24.90
2022-11-23T17:34:55.337Z,24.60
2022-11-23T17:37:24.087Z,24.60
2022-11-23T17:39:51.481Z,24.80
2022-11-23T17:42:18.988Z,24.60
2022-11-23T17:44:45.898Z,24.40
2022-11-23T17:47:28.891Z,24.90
2022-11-23T17:49:59.461Z,25.00
2022-11-23T17:52:26.417Z,24.60
2022-11-23T17:54:53.463Z,24.90
2022-11-23T17:57:24.177Z,25.20
2022-11-23T17:59:51.813Z,24.80
2022-11-23T18:02:19.666Z,25.40
2022-11-23T18:04:47.889Z,25.10
2022-11-23T18:07:16.317Z,24.60
2022-11-23T18:09:43.698Z,24.40
2022-11-23T18:12:10.691Z,23.70
2022-11-23T18:14:37.723Z,23.80
2022-11-23T18:17:04.745Z,23.90
2022-11-23T18:19:31.987Z,23.90
2022-11-23T18:21:59.307Z,24.30
2022-11-23T18:24:26.271Z,24.00
2022-11-23T18:26:54.305Z,23.70
2022-11-23T18:29:21.203Z,23.90
2022-11-23T18:31:48.197Z,23.90
2022-11-23T18:34:15.159Z,24.00
2022-11-23T18:36:42.103Z,23.70
2022-11-23T18:39:09.172Z,23.90
2022-11-23T18:41:36.213Z,23.90
2022-11-23T18:44:03.170Z,23.80
2022-11-23T18:46:30.226Z,23.70
2022-11-23T18:48:57.524Z,23.80
2022-11-23T18:51:24.870Z,23.60
2022-11-23T18:53:53.238Z,23.80
2022-11-23T18:56:20.510Z,23.90
2022-11-23T18:58:48.140Z,24.70
2022-11-23T19:01:18.202Z,24.80
2022-11-23T19:03:47.068Z,24.30
2022-11-23T19:06:16.013Z,23.70
2022-11-23T19:08:52.761Z,23.60
2022-11-23T19:11:22.905Z,24.20
2022-11-23T19:13:53.955Z,24.60
2022-11-23T19:16:25.567Z,24.70
2022-11-23T19:18:58.025Z,24.90
2022-11-23T19:21:27.580Z,24.90
2022-11-23T19:23:56.339Z,24.70
2022-11-23T19:26:24.030Z,24.30
2022-11-23T19:28:51.639Z,23.90
2022-11-23T19:31:30.649Z,24.20
2022-11-23T19:34:03.549Z,24.60
2022-11-23T19:36:33.350Z,24.40
2022-11-23T19:39:00.715Z,24.60
2022-11-23T19:41:30.807Z,24.60
2022-11-23T19:43:59.449Z,24.80
2022-11-23T19:46:27.595Z,24.90
2022-11-23T19:48:58.237Z,25.10
2022-11-23T19:51:26.779Z,24.90
2022-11-23T19:53:57.069Z,24.70
2022-11-23T19:56:26.210Z,24.90
2022-11-23T19:58:54.769Z,24.90
2022-11-23T20:01:23.692Z,24.50
2022-11-23T20:03:54.194Z,24.60
2022-11-23T20:06:29.770Z,25.00
2022-11-23T20:09:19.328Z,24.80
2022-11-23T20:11:50.629Z,24.50
2022-11-23T20:14:18.750Z,24.10
2022-11-23T20:16:45.780Z,24.10
2022-11-23T20:19:12.700Z,23.60
2022-11-23T20:21:39.688Z,23.60
2022-11-23T20:24:10.861Z,23.50
2022-11-23T20:26:39.238Z,23.60
2022-11-23T20:29:07.975Z,23.70
2022-11-23T20:31:36.093Z,23.80
2022-11-23T20:34:07.098Z,24.10
2022-11-23T20:36:38.180Z,23.60
2022-11-23T20:39:07.724Z,23.40
2022-11-23T20:41:36.549Z,23.10
2022-11-23T20:44:14.389Z,23.20
2022-11-23T20:49:30.548Z,23.50
2022-11-23T20:51:58.391Z,23.20
2022-11-23T20:54:28.282Z,23.10
2022-11-23T20:56:55.399Z,22.80
2022-11-23T20:59:23.930Z,23.00
2022-11-23T21:01:51.261Z,23.20
2022-11-23T21:04:18.383Z,23.40
2022-11-23T21:06:45.347Z,23.90
2022-11-23T21:09:12.367Z,23.80
2022-11-23T21:11:57.713Z,23.60
2022-11-23T21:14:28.124Z,23.30
2022-11-23T21:16:58.579Z,22.80
2022-11-23T21:19:33.777Z,22.90
2022-11-23T21:22:12.949Z,23.30
2022-11-23T21:24:40.623Z,23.20
2022-11-23T21:27:13.074Z,23.40
2022-11-23T21:29:40.466Z,23.40
2022-11-23T21:32:07.667Z,23.40
2022-11-23T21:34:36.084Z,23.50
2022-11-23T21:37:03.328Z,23.40
2022-11-23T21:39:31.399Z,23.30
2022-11-23T21:41:58.934Z,23.50
2022-11-23T21:44:26.717Z,23.50
2022-11-23T21:46:53.800Z,23.50
2022-11-23T21:49:20.860Z,22.80
2022-11-23T21:51:48.074Z,22.60
2022-11-23T21:54:16.109Z,22.90
2022-11-23T21:56:46.791Z,24.10
2022-11-23T21:59:14.434Z,23.10
2022-11-23T22:01:42.246Z,22.70
2022-11-23T22:04:11.620Z,22.40
2022-11-23T22:06:39.903Z,22.00
2022-11-23T22:09:09.687Z,22.00
2022-11-23T22:11:38.498Z,21.90
2022-11-23T22:14:08.110Z,21.80
2022-11-23T22:16:41.043Z,21.70
2022-11-23T22:19:12.076Z,21.80
2022-11-23T22:21:40.360Z,21.90
2022-11-23T22:24:11.433Z,22.10
2022-11-23T22:26:38.741Z,22.10
2022-11-23T22:29:06.920Z,22.20
2022-11-23T22:31:34.940Z,22.30
2022-11-23T22:34:08.827Z,22.30
2022-11-23T22:36:35.841Z,22.20
2022-11-23T22:39:05.331Z,22.20
2022-11-23T22:41:37.545Z,22.30
2022-11-23T22:44:09.633Z,22.30
2022-11-23T22:46:37.797Z,22.30
2022-11-23T22:49:05.630Z,22.10
2022-11-23T22:51:33.244Z,22.10
2022-11-23T22:54:01.461Z,22.20
2022-11-23T22:56:30.594Z,22.30
2022-11-23T22:58:57.664Z,22.20
2022-11-23T23:01:31.239Z,22.30
2022-11-23T23:04:02.410Z,22.20
2022-11-23T23:06:36.896Z,22.20
2022-11-23T23:09:08.329Z,22.20
2022-11-23T23:11:38.734Z,22.30
2022-11-23T23:14:06.401Z,22.30
2022-11-23T23:16:33.846Z,22.40
2022-11-23T23:19:01.569Z,22.30
2022-11-23T23:21:29.879Z,22.40
2022-11-23T23:23:59.894Z,22.20
2022-11-23T23:26:27.702Z,22.50
2022-11-23T23:28:59.837Z,22.70
2022-11-23T23:31:27.376Z,22.80
2022-11-23T23:33:54.373Z,22.90
2022-11-23T23:36:23.292Z,22.80
2022-11-23T23:38:50.986Z,22.80
2022-11-23T23:41:18.614Z,22.40
2022-11-23T23:43:48.206Z,22.30
2022-11-23T23:46:15.813Z,22.30
2022-11-23T23:48:42.977Z,22.00
2022-11-23T23:51:14.365Z,21.90
2022-11-23T23:53:41.994Z,22.30
2022-11-23T23:56:15.577Z,21.70
2022-11-23T23:58:42.972Z,21.70
